»·PEaware :: UAL1194 KSFO-KLAS

UAL1194 :: KSFO-KLAS

FLIGHT INFORMATION

Flight Status: Arrived
Operator:
United Airlines
More flights by this operator :: More flights under this callsign
Pilot: Colin A. (19898)
Aircraft: BOEING 737-700
(B737)
More flights by this aircraft type
Origin: KSFO San Francisco Intl
United States
Destination: KLAS McCarran Intl
United States
More flights between these airports :: More routes between these airports
Route: WESLA3 NTELL Q162 ESSAA BTY SUNST4
File this flight plan on PilotEdge
Remarks: PBN / A1B1C1D1S1S2 DOF / 180806 REG / N738UA EET / KZLA0038 SEL / GRFS OPR / UAL PER / C RMK / TCAS SIMBRIEF
Altitude:
(Current/Filed)
37,000ft
Speed:
(Current/Filed)
436kts
Departed: 06-Aug-18 08:49 PM
Arrived: 06-Aug-18 10:02 PM
Distance/Time
Traveled:
359nm/1:12
Distance/Time
To Go:
Arrived

Flight Plot

Page will automatically refresh every two minutes.

Flight plan parsing failed; only flown route is shown


Map Options




Map Legend


Flown Route
Filed Route
Departure Airport
Arrival Airport
Navaid (VOR, NDB)
Fix

Horizontal Profiles

Position Reports

Time Latitude Longitude Heading Altitude Ground
Speed
06-Aug-18 20:33 37.619587 -122.383552 252 20ft 0kts
06-Aug-18 20:34 37.619587 -122.383552 252 20ft 0kts
06-Aug-18 20:35 37.619587 -122.383552 252 20ft 0kts
06-Aug-18 20:36 37.619649 -122.383339 240 20ft 2kts
06-Aug-18 20:37 37.620120 -122.383117 118 20ft 2kts
06-Aug-18 20:38 37.620169 -122.383231 118 20ft 0kts
06-Aug-18 20:39 37.620169 -122.383231 118 20ft 0kts
06-Aug-18 20:40 37.620169 -122.383231 118 20ft 0kts
06-Aug-18 20:41 37.618636 -122.379604 117 20ft 18kts
06-Aug-18 20:42 37.617979 -122.377619 111 20ft 0kts
06-Aug-18 20:43 37.617979 -122.377617 111 20ft 0kts
06-Aug-18 20:44 37.617763 -122.376907 110 20ft 17kts
06-Aug-18 20:45 37.615040 -122.369902 119 20ft 31kts
06-Aug-18 20:46 37.611620 -122.362847 117 20ft 29kts
06-Aug-18 20:47 37.610756 -122.359143 52 20ft 0kts
06-Aug-18 20:48 37.611006 -122.359017 20 20ft 0kts
06-Aug-18 20:49 37.612209 -122.359552 300 20ft 21kts
06-Aug-18 20:50 37.628554 -122.396883 298 1448ft 178kts
06-Aug-18 20:51 37.657677 -122.462096 298 2365ft 229kts
06-Aug-18 20:52 37.643348 -122.529720 203 5290ft 244kts
06-Aug-18 20:53 37.571773 -122.513136 158 8795ft 275kts
06-Aug-18 20:54 37.496746 -122.475113 146 11618ft 323kts
06-Aug-18 20:55 37.434801 -122.379535 124 14085ft 372kts
06-Aug-18 20:56 37.394632 -122.257803 102 17311ft 388kts
06-Aug-18 20:57 37.368162 -122.123067 102 20159ft 406kts
06-Aug-18 20:58 37.339923 -121.982182 103 22699ft 422kts
06-Aug-18 20:59 37.310844 -121.836724 103 24804ft 439kts
06-Aug-18 21:00 37.280195 -121.684361 104 26503ft 457kts
06-Aug-18 21:01 37.248204 -121.527371 105 27989ft 473kts
06-Aug-18 21:02 37.214793 -121.364913 106 29304ft 487kts
06-Aug-18 21:03 37.180358 -121.198818 107 30732ft 493kts
06-Aug-18 21:04 37.145650 -121.032707 108 32270ft 493kts
06-Aug-18 21:05 37.110632 -120.866350 108 33684ft 493kts
06-Aug-18 21:06 37.075470 -120.700564 108 34995ft 492kts
06-Aug-18 21:07 37.039970 -120.534424 109 36122ft 492kts
06-Aug-18 21:08 37.004515 -120.369744 109 37144ft 493kts
06-Aug-18 21:09 36.968675 -120.203303 109 37157ft 492kts
06-Aug-18 21:10 36.932503 -120.038035 109 37158ft 493kts
06-Aug-18 21:11 36.910101 -119.868561 86 37144ft 510kts
06-Aug-18 21:12 36.958859 -119.701268 68 37141ft 515kts
06-Aug-18 21:13 37.014289 -119.536175 69 37135ft 514kts
06-Aug-18 21:14 37.068532 -119.370803 69 37129ft 514kts
06-Aug-18 21:15 37.122333 -119.204409 69 37120ft 514kts
06-Aug-18 21:16 37.175722 -119.038470 69 37108ft 515kts
06-Aug-18 21:17 37.228925 -118.871258 70 37092ft 515kts
06-Aug-18 21:18 37.277384 -118.702612 79 37038ft 511kts
06-Aug-18 21:19 37.294942 -118.526310 88 36981ft 508kts
06-Aug-18 21:20 37.312813 -118.321087 87 36937ft 507kts
06-Aug-18 21:21 37.326401 -118.174312 87 36932ft 507kts
06-Aug-18 21:22 37.341789 -117.998136 88 36941ft 507kts
06-Aug-18 21:23 37.345372 -117.822255 102 36954ft 499kts
06-Aug-18 21:24 37.329320 -117.649183 102 36965ft 501kts
06-Aug-18 21:25 37.313453 -117.474966 102 36970ft 503kts
06-Aug-18 21:26 37.288109 -117.304107 121 36978ft 486kts
06-Aug-18 21:27 37.212946 -117.168602 136 36982ft 470kts
06-Aug-18 21:28 37.132861 -117.038692 136 36993ft 472kts
06-Aug-18 21:29 37.045906 -116.919845 154 37000ft 450kts
06-Aug-18 21:30 36.940555 -116.844243 161 36990ft 416kts
06-Aug-18 21:31 36.844292 -116.777839 161 35767ft 394kts
06-Aug-18 21:32 36.756159 -116.685652 141 32974ft 436kts
06-Aug-18 21:33 36.675708 -116.570156 140 29983ft 446kts
06-Aug-18 21:34 36.594401 -116.453863 139 27199ft 439kts
06-Aug-18 21:35 36.514357 -116.340683 138 24246ft 433kts
06-Aug-18 21:36 36.435484 -116.229566 138 21244ft 424kts
06-Aug-18 21:37 36.358441 -116.120933 137 18242ft 413kts
06-Aug-18 21:38 36.284433 -116.017309 137 16424ft 375kts
06-Aug-18 21:39 36.219316 -115.926438 137 16039ft 327kts
06-Aug-18 21:40 36.176761 -115.827629 116 15327ft 330kts
06-Aug-18 21:41 36.143703 -115.723142 117 14326ft 320kts
06-Aug-18 21:42 36.110523 -115.620150 116 13341ft 319kts
06-Aug-18 21:43 36.078193 -115.520147 116 12383ft 308kts
06-Aug-18 21:44 36.046594 -115.422983 116 11460ft 297kts
06-Aug-18 21:45 36.027077 -115.328590 98 10459ft 281kts
06-Aug-18 21:46 36.020797 -115.233959 98 9368ft 274kts
06-Aug-18 21:47 36.014390 -115.140892 98 8504ft 270kts
06-Aug-18 21:48 36.019713 -115.051279 80 8167ft 255kts
06-Aug-18 21:49 36.022841 -114.968398 107 8014ft 241kts
06-Aug-18 21:50 36.006340 -114.887167 107 7990ft 243kts
06-Aug-18 21:51 35.989767 -114.805950 107 7987ft 244kts
06-Aug-18 21:52 35.987567 -114.721971 97 8032ft 252kts
06-Aug-18 21:53 35.983673 -114.635045 78 7961ft 255kts
06-Aug-18 21:54 36.042097 -114.600784 341 7972ft 258kts
06-Aug-18 21:55 36.069778 -114.670948 268 8006ft 241kts
06-Aug-18 21:56 36.073744 -114.753418 267 7784ft 239kts
06-Aug-18 21:57 36.073630 -114.832571 266 6657ft 220kts
06-Aug-18 21:58 36.073639 -114.908452 266 5260ft 222kts
06-Aug-18 21:59 36.073677 -114.981908 267 4190ft 192kts
06-Aug-18 22:00 36.074120 -115.040873 262 3613ft 155kts
06-Aug-18 22:01 36.073901 -115.091588 264 2763ft 143kts
06-Aug-18 22:02 36.073672 -115.138439 266 2189ft 101kts
06-Aug-18 22:03 36.074842 -115.146132 304 2189ft 7kts
06-Aug-18 22:04 36.077618 -115.146350 53 2189ft 7kts
06-Aug-18 22:05 36.077995 -115.141627 347 2189ft 17kts
06-Aug-18 22:06 36.082343 -115.140654 72 2189ft 3kts
06-Aug-18 22:07 36.082442 -115.140302 69 2189ft 0kts
06-Aug-18 22:08 36.082442 -115.140302 69 2189ft 0kts
06-Aug-18 22:09 36.082442 -115.140302 69 2189ft 0kts
06-Aug-18 22:10 36.082442 -115.140302 69 2189ft 0kts
06-Aug-18 22:11 36.082442 -115.140302 69 2189ft 0kts
06-Aug-18 22:12 36.082442 -115.140302 69 2189ft 0kts
06-Aug-18 22:13 36.082442 -115.140302 69 2189ft 0kts

Navigation Log

Ident Type
Flight plan parsing failed, navigation log unavailable